Terminal Aerodrome Forecast
Issued by NWS Wilmington, OH

Current Version | Previous Version | Graphics & Text | Print | Product List | Glossary On
Versions: 1 2 3 4 5 6 7 8 9 10 11 12 13 14 15 16 17 18 19 20 21 22 23 24
000
FTUS41 KILN 160200 AAA
TAFILN
TAF AMD
KILN 160217Z 1602/1624 27005KT P6SM -SHRA BKN040 OVC080
     FM160400 34005KT P6SM VCSH OVC022
     FM160600 36008KT P6SM VCSH OVC012
     FM160800 36008KT 4SM BR OVC004
     FM161500 01008KT P6SM OVC010
     FM161700 01008KT P6SM BKN022
     FM161900 01008KT P6SM BKN035=

USA.gov is the U.S. government's official web portal to all federal, state and local government web resources and services.